Time;durP1;ratioP1;P1;durP2;ratioP2;P2;SDS_P1;SDS_P2;PMS_P1;PMS_P2;Temp;Humidity;BMP_temperature;BMP_pressure;BME280_temperature;BME280_humidity;BME280_pressure;Samples;Min_cycle;Max_cycle;Signal;HPM_P1;HPM_P2
2022/09/25 00:00:34;;;;;;;4.63;1.50;;;8.40;99.90;;;;;;5058129;28;20037;-70
2022/09/25 00:03:00;;;;;;;4.82;1.50;;;8.30;99.90;;;;;;5027201;28;20529;-70
2022/09/25 00:05:26;;;;;;;5.13;1.60;;;8.70;99.90;;;;;;5026193;28;20517;-69
2022/09/25 00:07:55;;;;;;;10.52;1.90;;;8.30;99.90;;;;;;5040490;28;20073;-70
2022/09/25 00:10:24;;;;;;;6.22;1.58;;;8.30;99.90;;;;;;5027995;28;20045;-70
2022/09/25 00:12:50;;;;;;;7.47;1.75;;;8.30;99.90;;;;;;5022315;28;20041;-70
2022/09/25 00:15:17;;;;;;;9.55;1.90;;;8.20;99.90;;;;;;5025119;28;20608;-71
2022/09/25 00:17:43;;;;;;;6.38;1.63;;;8.30;99.90;;;;;;5008806;28;20038;-70
2022/09/25 00:20:09;;;;;;;4.85;1.45;;;8.30;99.90;;;;;;5008868;28;20589;-70
2022/09/25 00:22:35;;;;;;;6.45;1.38;;;8.30;99.90;;;;;;5027155;28;20413;-70
2022/09/25 00:25:01;;;;;;;4.28;1.40;;;8.20;99.90;;;;;;5028495;28;20046;-69
2022/09/25 00:27:30;;;;;;;6.95;1.45;;;8.20;99.90;;;;;;5041395;28;20132;-70
2022/09/25 00:29:55;;;;;;;4.43;1.60;;;8.20;99.90;;;;;;5009520;28;20159;-70
2022/09/25 00:32:21;;;;;;;4.20;1.60;;;8.20;99.90;;;;;;5025011;28;20810;-70
2022/09/25 00:34:47;;;;;;;5.63;1.52;;;8.20;99.90;;;;;;5024169;28;20072;-70
2022/09/25 00:37:13;;;;;;;6.82;1.77;;;8.20;99.90;;;;;;5008685;28;20708;-70
2022/09/25 00:39:39;;;;;;;5.50;1.48;;;8.20;99.90;;;;;;5009237;28;20034;-70
2022/09/25 00:42:05;;;;;;;4.95;1.25;;;8.10;99.90;;;;;;5042510;28;20410;-70
2022/09/25 00:45:00;;;;;;;7.18;2.03;;;8.10;99.90;;;;;;5041905;28;20510;-70
2022/09/25 00:47:43;;;;;;;5.22;1.40;;;8.10;99.90;;;;;;5025646;28;20387;-70
2022/09/25 00:50:19;;;;;;;4.55;1.38;;;8.10;99.90;;;;;;5038255;28;20132;-70
2022/09/25 00:52:46;;;;;;;5.18;1.63;;;8.10;99.90;;;;;;5021541;28;20124;-70
2022/09/25 00:55:13;;;;;;;7.68;1.90;;;8.50;99.90;;;;;;5040893;28;20084;-70
2022/09/25 00:57:43;;;;;;;6.30;1.65;;;8.10;99.90;;;;;;5056720;28;20049;-70
2022/09/25 01:00:11;;;;;;;6.20;1.40;;;8.20;99.90;;;;;;5025052;28;20038;-70
2022/09/25 01:02:45;;;;;;;6.75;1.65;;;8.20;99.90;;;;;;5022379;28;20036;-70
2022/09/25 01:05:17;;;;;;;7.10;1.60;;;8.20;99.90;;;;;;5024082;28;20038;-69
2022/09/25 01:07:46;;;;;;;10.35;1.50;;;8.20;99.90;;;;;;5023797;28;20037;-71
2022/09/25 01:10:13;;;;;;;4.57;1.10;;;8.20;99.90;;;;;;5027708;28;20083;-70
2022/09/25 01:12:43;;;;;;;6.45;1.55;;;8.20;99.90;;;;;;5054435;28;20038;-69
2022/09/25 01:15:12;;;;;;;4.35;1.10;;;8.50;99.90;;;;;;5007980;28;20049;-70
2022/09/25 01:17:45;;;;;;;4.70;1.13;;;8.20;99.90;;;;;;5027876;28;20561;-70
2022/09/25 01:20:39;;;;;;;4.40;1.40;;;8.20;99.90;;;;;;5062038;28;20049;-70
2022/09/25 01:23:30;;;;;;;4.15;1.20;;;8.20;99.90;;;;;;5028453;28;20095;-70
2022/09/25 01:25:59;;;;;;;5.18;1.50;;;8.20;99.90;;;;;;5012581;28;20234;-70
2022/09/25 01:29:06;;;;;;;5.80;1.40;;;8.20;99.90;;;;;;5061210;28;20058;-71
2022/09/25 01:31:41;;;;;;;9.13;1.65;;;8.20;99.90;;;;;;4987930;28;20042;-71
2022/09/25 01:34:30;;;;;;;4.93;1.20;;;8.20;99.90;;;;;;4990592;28;20048;-71
2022/09/25 01:37:11;;;;;;;6.82;1.70;;;8.10;99.90;;;;;;4998519;28;20045;-70
2022/09/25 01:39:44;;;;;;;5.15;1.48;;;8.10;99.90;;;;;;5060654;28;20045;-70
2022/09/25 01:42:24;;;;;;;6.10;1.30;;;8.10;99.90;;;;;;5028129;28;20046;-70
2022/09/25 01:45:02;;;;;;;6.38;1.50;;;8.10;99.90;;;;;;5025478;28;20037;-70
2022/09/25 01:47:29;;;;;;;4.03;1.20;;;8.10;99.90;;;;;;5060030;28;20057;-70
2022/09/25 01:50:02;;;;;;;7.90;1.40;;;8.00;99.90;;;;;;5043439;28;20033;-70
2022/09/25 01:52:37;;;;;;;4.45;1.23;;;8.00;99.90;;;;;;5026308;28;20454;-70
2022/09/25 01:55:17;;;;;;;4.18;1.40;;;8.00;99.90;;;;;;5027492;28;20160;-70
2022/09/25 01:57:52;;;;;;;4.15;1.20;;;8.00;99.90;;;;;;5027236;28;20481;-70
2022/09/25 02:00:20;;;;;;;5.35;1.58;;;8.10;99.90;;;;;;5025543;28;20049;-70
2022/09/25 02:03:01;;;;;;;4.10;1.02;;;8.00;99.90;;;;;;5027908;28;20056;-70
2022/09/25 02:05:37;;;;;;;6.30;1.52;;;8.00;99.90;;;;;;5044639;28;20061;-70
2022/09/25 02:08:07;;;;;;;5.60;1.40;;;8.00;99.90;;;;;;5027006;28;20050;-70
2022/09/25 02:10:42;;;;;;;3.50;1.17;;;8.00;99.90;;;;;;5027349;28;20498;-70
2022/09/25 02:13:12;;;;;;;3.72;1.17;;;8.10;99.90;;;;;;5009973;28;20041;-69
2022/09/25 02:15:51;;;;;;;4.75;1.48;;;7.90;99.90;;;;;;5025333;28;20041;-70
2022/09/25 02:21:21;;;;;;;4.40;1.27;;;8.30;99.90;;;;;;5057321;28;20057;-69
2022/09/25 02:24:11;;;;;;;6.43;1.30;;;7.90;99.90;;;;;;5059858;28;20042;-69
2022/09/25 02:26:37;;;;;;;5.30;1.38;;;7.90;99.90;;;;;;5027860;28;20437;-69
2022/09/25 02:29:04;;;;;;;4.47;1.20;;;7.90;99.90;;;;;;5026778;28;20037;-70
2022/09/25 02:31:48;;;;;;;4.72;1.30;;;7.90;99.90;;;;;;5026138;28;20048;-70
2022/09/25 02:34:14;;;;;;;5.97;1.67;;;8.10;99.90;;;;;;5025426;28;20447;-69
2022/09/25 02:36:41;;;;;;;6.45;1.30;;;7.90;99.90;;;;;;5026329;28;20068;-70
2022/09/25 02:39:08;;;;;;;5.82;1.50;;;7.80;99.90;;;;;;5026262;28;20557;-70
2022/09/25 02:41:40;;;;;;;5.32;1.10;;;7.80;99.90;;;;;;5011559;28;20041;-70
2022/09/25 02:44:54;;;;;;;4.43;1.25;;;7.80;99.90;;;;;;5009187;28;20049;-69
2022/09/25 02:47:43;;;;;;;5.88;1.30;;;7.80;99.90;;;;;;5016416;28;20045;-70
2022/09/25 02:50:09;;;;;;;3.30;1.20;;;7.70;99.90;;;;;;5058131;28;20049;-69
2022/09/25 02:52:52;;;;;;;3.53;1.15;;;7.80;99.90;;;;;;5057115;28;20046;-70
2022/09/25 02:55:25;;;;;;;4.85;1.55;;;7.70;99.90;;;;;;5027961;28;20504;-70
2022/09/25 02:57:57;;;;;;;7.88;1.92;;;7.70;99.90;;;;;;5023274;28;20076;-69
2022/09/25 03:00:23;;;;;;;6.45;1.30;;;7.70;99.90;;;;;;5026169;28;20084;-69
2022/09/25 03:02:55;;;;;;;3.20;1.13;;;7.70;99.90;;;;;;5028090;28;20405;-70
2022/09/25 03:05:22;;;;;;;6.18;1.50;;;7.70;99.90;;;;;;5010070;28;20046;-70
2022/09/25 03:10:35;;;;;;;6.03;1.35;;;7.60;99.90;;;;;;5026818;28;20183;-70
2022/09/25 03:13:33;;;;;;;4.32;1.15;;;7.60;99.90;;;;;;5026279;28;20045;-70
2022/09/25 03:16:18;;;;;;;4.05;1.10;;;7.60;99.90;;;;;;5014346;28;20068;-70
2022/09/25 03:18:44;;;;;;;3.97;1.25;;;7.60;99.90;;;;;;5025116;28;20730;-70
2022/09/25 03:21:10;;;;;;;3.45;1.20;;;7.60;99.90;;;;;;5023310;28;20053;-69
2022/09/25 03:23:36;;;;;;;4.72;1.50;;;7.70;99.90;;;;;;5025386;28;20041;-69
2022/09/25 03:26:03;;;;;;;3.63;1.23;;;7.60;99.90;;;;;;5008275;28;20046;-70
2022/09/25 03:28:29;;;;;;;5.00;1.38;;;7.80;99.90;;;;;;5041786;28;20049;-69
2022/09/25 03:31:05;;;;;;;5.22;1.38;;;7.60;99.90;;;;;;5026868;28;20038;-69
2022/09/25 03:33:39;;;;;;;8.80;1.60;;;7.60;99.90;;;;;;5027601;28;20099;-70
2022/09/25 03:36:10;;;;;;;8.52;1.40;;;7.60;99.90;;;;;;5025748;28;20449;-69
2022/09/25 03:38:36;;;;;;;6.37;1.70;;;7.60;99.90;;;;;;5025898;28;20030;-69
2022/09/25 03:41:05;;;;;;;3.63;1.38;;;7.60;99.90;;;;;;5025111;28;20323;-69
2022/09/25 03:43:35;;;;;;;8.50;1.92;;;7.70;99.90;;;;;;5029752;28;20046;-69
2022/09/25 03:46:05;;;;;;;5.22;1.23;;;7.60;99.90;;;;;;5023303;28;20553;-70
2022/09/25 03:48:31;;;;;;;7.38;1.50;;;7.60;99.90;;;;;;5007611;28;20041;-69
2022/09/25 03:50:57;;;;;;;5.25;1.35;;;7.60;99.90;;;;;;5025768;28;20095;-69
2022/09/25 03:53:24;;;;;;;4.10;1.40;;;7.60;99.90;;;;;;5041546;28;20445;-69
2022/09/25 03:55:51;;;;;;;6.85;1.67;;;7.60;99.90;;;;;;5018537;28;20033;-70
2022/09/25 03:58:17;;;;;;;5.45;1.67;;;7.60;99.90;;;;;;5017782;28;20045;-69
2022/09/25 04:00:44;;;;;;;6.20;1.63;;;7.60;99.90;;;;;;5018306;28;20041;-69
2022/09/25 04:03:11;;;;;;;5.32;1.50;;;7.60;99.90;;;;;;5001402;28;20136;-69
2022/09/25 04:05:37;;;;;;;6.68;1.50;;;7.60;99.90;;;;;;5051792;28;20037;-69
2022/09/25 04:08:03;;;;;;;5.90;1.52;;;7.60;99.90;;;;;;5016612;28;20044;-69
2022/09/25 04:10:30;;;;;;;5.72;1.45;;;7.60;99.90;;;;;;5051453;28;21096;-69
2022/09/25 04:12:57;;;;;;;5.00;1.50;;;7.60;99.90;;;;;;5006045;28;20065;-69
2022/09/25 04:15:23;;;;;;;6.15;1.42;;;7.50;99.90;;;;;;5023670;28;20053;-69
2022/09/25 04:17:50;;;;;;;5.15;1.20;;;7.50;99.90;;;;;;5042786;28;20098;-69
2022/09/25 04:20:16;;;;;;;4.82;1.30;;;7.50;99.90;;;;;;5000489;28;20129;-69
2022/09/25 04:22:42;;;;;;;5.18;1.52;;;8.00;99.90;;;;;;5040659;28;20145;-69
2022/09/25 04:25:09;;;;;;;3.63;1.17;;;7.50;99.90;;;;;;5039926;28;20041;-69
2022/09/25 04:27:35;;;;;;;6.00;1.65;;;7.50;99.90;;;;;;5023720;28;20529;-70
2022/09/25 04:30:04;;;;;;;6.18;1.38;;;7.50;99.90;;;;;;5003081;28;20033;-69
2022/09/25 04:35:14;;;;;;;4.80;1.40;;;7.40;99.90;;;;;;5022840;28;20053;-69
2022/09/25 04:37:40;;;;;;;5.43;1.25;;;7.40;99.90;;;;;;5023638;28;20044;-70
2022/09/25 04:40:06;;;;;;;4.72;1.60;;;7.40;99.90;;;;;;5020098;28;20414;-69
2022/09/25 04:42:32;;;;;;;2.30;1.20;;;7.40;99.90;;;;;;5023012;28;20055;-69
2022/09/25 04:44:58;;;;;;;5.75;1.17;;;7.40;99.90;;;;;;5024567;28;20041;-69
2022/09/25 04:47:28;;;;;;;3.65;1.40;;;7.40;99.90;;;;;;5021445;28;20046;-69
2022/09/25 04:49:54;;;;;;;8.73;1.43;;;7.40;99.90;;;;;;5022812;28;20052;-69
2022/09/25 04:52:20;;;;;;;4.35;1.25;;;7.30;99.90;;;;;;5039393;28;20507;-70
2022/09/25 04:54:47;;;;;;;4.75;1.35;;;7.30;99.90;;;;;;5042728;28;20045;-70
2022/09/25 04:57:18;;;;;;;5.40;1.20;;;7.30;99.90;;;;;;5026129;28;20129;-70
2022/09/25 04:59:44;;;;;;;1.92;0.98;;;7.30;99.90;;;;;;5042232;28;20053;-70
2022/09/25 05:02:11;;;;;;;5.47;1.20;;;7.30;99.90;;;;;;5023396;28;20546;-69
2022/09/25 05:04:37;;;;;;;6.60;1.30;;;7.30;99.90;;;;;;5010893;28;20041;-69
2022/09/25 05:07:03;;;;;;;4.97;1.23;;;7.30;99.90;;;;;;5041339;28;20501;-69
2022/09/25 05:09:30;;;;;;;3.88;1.40;;;7.30;99.90;;;;;;5027285;28;20132;-69
2022/09/25 05:11:56;;;;;;;3.17;1.20;;;7.30;99.90;;;;;;5007831;28;20056;-69
2022/09/25 05:14:22;;;;;;;2.47;1.10;;;7.30;99.90;;;;;;5027098;28;20357;-69
2022/09/25 05:16:48;;;;;;;4.15;1.30;;;7.30;99.90;;;;;;5027071;28;20037;-69
2022/09/25 05:19:14;;;;;;;7.00;1.60;;;7.50;99.90;;;;;;5009953;28;20428;-69
2022/09/25 05:21:41;;;;;;;5.90;1.40;;;7.70;99.90;;;;;;5060162;28;20045;-69
2022/09/25 05:24:10;;;;;;;5.20;1.63;;;7.20;99.90;;;;;;5034018;28;20051;-69
2022/09/25 05:26:36;;;;;;;5.63;1.48;;;7.20;99.90;;;;;;5024552;28;20424;-69
2022/09/25 05:29:03;;;;;;;7.03;1.95;;;7.50;99.90;;;;;;5008053;28;20037;-69
2022/09/25 05:31:30;;;;;;;5.32;1.30;;;7.20;99.90;;;;;;5019377;28;20056;-69
2022/09/25 05:33:56;;;;;;;4.50;1.60;;;7.60;99.90;;;;;;4998203;28;20066;-69
2022/09/25 05:36:22;;;;;;;4.38;1.58;;;7.20;99.90;;;;;;5015853;28;20087;-69
2022/09/25 05:38:48;;;;;;;3.53;1.30;;;7.20;99.90;;;;;;5017877;28;20260;-69
2022/09/25 05:41:14;;;;;;;5.32;1.30;;;7.20;99.90;;;;;;5031732;28;20045;-69
2022/09/25 05:43:46;;;;;;;4.00;1.70;;;7.20;99.90;;;;;;5016943;28;20106;-69
2022/09/25 05:46:13;;;;;;;5.20;1.90;;;7.20;99.90;;;;;;5017767;28;20053;-68
2022/09/25 05:48:39;;;;;;;6.43;1.58;;;7.20;99.90;;;;;;5015987;28;20625;-69
2022/09/25 05:51:05;;;;;;;6.00;1.90;;;7.20;99.90;;;;;;5023027;28;20128;-70
2022/09/25 05:53:34;;;;;;;6.47;1.70;;;7.20;99.90;;;;;;5026782;28;20151;-69
2022/09/25 05:56:02;;;;;;;4.45;1.48;;;7.20;99.90;;;;;;5014516;28;20087;-69
2022/09/25 05:58:30;;;;;;;7.40;1.52;;;7.30;99.90;;;;;;5008423;28;22387;-69
2022/09/25 06:00:59;;;;;;;3.22;1.40;;;7.20;99.90;;;;;;5021899;28;20056;-69
2022/09/25 06:03:28;;;;;;;8.10;1.40;;;7.40;99.90;;;;;;5026215;28;20073;-69
2022/09/25 06:05:58;;;;;;;3.20;1.00;;;7.30;99.90;;;;;;5022391;28;20045;-69
2022/09/25 06:08:25;;;;;;;4.07;1.05;;;7.30;99.90;;;;;;5025209;28;20042;-68
2022/09/25 06:10:54;;;;;;;2.42;1.10;;;7.30;99.90;;;;;;5022576;28;20083;-69
2022/09/25 06:13:24;;;;;;;3.58;0.90;;;7.40;99.90;;;;;;5052195;28;20057;-69
2022/09/25 06:15:51;;;;;;;3.70;1.10;;;7.50;99.90;;;;;;5024574;28;20041;-69
2022/09/25 06:18:22;;;;;;;3.47;1.10;;;7.70;99.90;;;;;;5023745;28;20064;-69
2022/09/25 06:20:48;;;;;;;2.87;0.93;;;7.90;99.90;;;;;;5051142;28;20565;-69
2022/09/25 06:23:14;;;;;;;2.85;1.10;;;8.00;99.90;;;;;;5022349;28;20053;-70
2022/09/25 06:25:40;;;;;;;6.28;1.02;;;8.20;99.90;;;;;;5025789;28;20590;-68
2022/09/25 06:28:06;;;;;;;8.25;1.55;;;8.30;99.90;;;;;;5028111;28;20113;-70
2022/09/25 06:30:35;;;;;;;3.60;1.05;;;8.70;99.90;;;;;;5026493;28;20129;-69
2022/09/25 06:33:03;;;;;;;6.90;1.27;;;8.40;99.90;;;;;;5025122;28;20037;-69
2022/09/25 06:35:29;;;;;;;4.72;1.10;;;8.40;99.90;;;;;;5026082;28;20053;-70
2022/09/25 06:37:59;;;;;;;5.47;1.30;;;8.40;99.90;;;;;;5027224;28;20030;-70
2022/09/25 06:40:26;;;;;;;5.95;1.20;;;8.40;99.90;;;;;;5021555;28;20060;-69
2022/09/25 06:43:02;;;;;;;5.97;1.42;;;8.40;99.90;;;;;;5023868;28;20049;-70
2022/09/25 06:45:31;;;;;;;7.90;1.70;;;8.40;99.90;;;;;;5020931;28;21397;-70
2022/09/25 06:48:08;;;;;;;4.82;1.30;;;8.50;99.90;;;;;;5053422;28;20050;-69
2022/09/25 06:50:46;;;;;;;7.05;1.35;;;8.50;99.90;;;;;;5040302;28;20135;-70
2022/09/25 06:53:13;;;;;;;6.05;1.63;;;8.60;99.90;;;;;;5023968;28;20072;-69
2022/09/25 06:55:39;;;;;;;9.88;1.65;;;8.60;99.90;;;;;;5023230;28;20045;-70
2022/09/25 06:58:07;;;;;;;4.43;1.10;;;8.70;99.90;;;;;;5026523;28;20077;-70
2022/09/25 07:00:33;;;;;;;8.73;1.60;;;8.80;99.90;;;;;;5007909;28;20207;-73
2022/09/25 07:05:46;;;;;;;5.57;1.20;;;9.20;99.90;;;;;;5024455;28;20132;-74
2022/09/25 07:08:12;;;;;;;6.70;1.40;;;9.30;99.90;;;;;;5025420;28;20374;-74
2022/09/25 07:10:38;;;;;;;6.65;1.63;;;9.50;99.90;;;;;;5010507;28;20456;-74
2022/09/25 07:13:05;;;;;;;5.13;1.17;;;9.70;99.90;;;;;;5036141;28;20041;-73
2022/09/25 07:15:30;;;;;;;4.80;1.08;;;9.90;99.90;;;;;;5026821;28;20086;-73
2022/09/25 07:17:56;;;;;;;5.55;1.08;;;10.10;99.90;;;;;;5025144;28;20041;-73
2022/09/25 07:20:21;;;;;;;6.78;1.45;;;10.20;99.90;;;;;;5022546;28;20084;-74
2022/09/25 07:22:47;;;;;;;7.10;1.33;;;10.40;99.90;;;;;;5009125;28;20044;-74
2022/09/25 07:25:13;;;;;;;10.38;2.10;;;10.60;99.90;;;;;;5039461;28;20041;-74
2022/09/25 07:27:39;;;;;;;7.90;1.38;;;10.70;99.90;;;;;;5014446;28;20053;-74
2022/09/25 07:30:05;;;;;;;10.00;1.27;;;10.90;99.90;;;;;;5010987;28;20045;-73
2022/09/25 07:32:31;;;;;;;5.72;1.35;;;11.10;99.90;;;;;;5039872;28;20486;-73
2022/09/25 07:34:57;;;;;;;4.28;1.30;;;11.20;99.90;;;;;;5033534;28;20068;-72
2022/09/25 07:37:24;;;;;;;6.47;1.10;;;11.20;99.90;;;;;;5034205;28;20052;-73
2022/09/25 07:39:52;;;;;;;10.32;1.10;;;11.30;99.90;;;;;;5017124;28;20029;-73
2022/09/25 07:42:18;;;;;;;5.32;1.10;;;11.30;99.90;;;;;;5030472;28;20464;-73
2022/09/25 07:44:44;;;;;;;4.88;1.10;;;11.40;99.90;;;;;;5042572;28;20070;-73
2022/09/25 07:47:13;;;;;;;3.75;1.10;;;11.40;99.90;;;;;;5043036;28;20037;-73
2022/09/25 07:49:40;;;;;;;5.20;1.00;;;11.40;99.90;;;;;;5014985;28;20132;-73
2022/09/25 07:52:05;;;;;;;6.82;1.23;;;11.40;99.90;;;;;;5035304;28;20486;-73
2022/09/25 07:54:34;;;;;;;7.50;1.00;;;11.40;99.90;;;;;;5034445;28;20183;-73
2022/09/25 07:57:00;;;;;;;4.75;1.10;;;11.40;99.90;;;;;;5019476;28;20056;-73
2022/09/25 07:59:26;;;;;;;5.22;1.10;;;11.40;99.90;;;;;;5042696;28;20048;-73
2022/09/25 08:01:52;;;;;;;6.07;1.15;;;11.50;99.90;;;;;;5043867;28;20421;-73
2022/09/25 08:04:17;;;;;;;4.70;0.90;;;11.50;99.90;;;;;;5036220;28;20077;-73
2022/09/25 08:06:43;;;;;;;5.10;1.00;;;11.50;99.90;;;;;;5032763;28;20557;-72
2022/09/25 08:09:11;;;;;;;11.63;2.05;;;11.60;99.90;;;;;;5033162;28;20171;-73
2022/09/25 08:11:37;;;;;;;6.10;1.17;;;11.60;99.90;;;;;;5027511;28;20501;-73
2022/09/25 08:14:02;;;;;;;8.38;1.50;;;11.60;99.90;;;;;;5036542;28;20041;-73
2022/09/25 08:16:28;;;;;;;3.60;0.98;;;11.60;99.90;;;;;;5035842;28;20052;-74
2022/09/25 08:18:54;;;;;;;8.88;1.75;;;11.60;99.90;;;;;;5034536;28;20075;-73
2022/09/25 08:21:20;;;;;;;6.68;1.27;;;11.60;99.90;;;;;;5032478;28;20054;-73
2022/09/25 08:23:51;;;;;;;9.63;1.77;;;11.60;99.90;;;;;;5027906;28;20049;-73
2022/09/25 08:26:19;;;;;;;6.53;1.40;;;11.60;99.90;;;;;;5030122;28;20040;-73
2022/09/25 08:28:45;;;;;;;8.48;1.23;;;11.60;99.90;;;;;;5016291;28;20115;-73
2022/09/25 08:31:13;;;;;;;5.68;1.08;;;11.70;99.90;;;;;;5031520;28;20096;-73
2022/09/25 08:33:43;;;;;;;5.50;1.00;;;11.70;99.90;;;;;;5031358;28;20128;-73
2022/09/25 08:36:09;;;;;;;7.60;1.45;;;11.60;99.90;;;;;;5035944;28;20078;-73
2022/09/25 08:38:35;;;;;;;5.70;1.00;;;11.70;99.90;;;;;;5042706;28;20052;-73
2022/09/25 08:41:22;;;;;;;6.05;1.20;;;11.70;99.90;;;;;;5040614;28;20041;-73
2022/09/25 08:44:11;;;;;;;5.07;1.30;;;11.70;99.90;;;;;;5037828;28;20033;-73
2022/09/25 08:49:42;;;;;;;4.32;0.90;;;11.80;99.90;;;;;;5045680;28;20115;-73
2022/09/25 08:52:15;;;;;;;8.77;1.33;;;11.80;99.90;;;;;;5034077;28;20041;-74
2022/09/25 08:54:40;;;;;;;7.68;1.35;;;11.90;99.90;;;;;;5033709;28;20045;-74
2022/09/25 08:57:33;;;;;;;5.22;1.38;;;12.00;99.90;;;;;;5059659;28;20580;-74
2022/09/25 09:00:21;;;;;;;10.50;1.30;;;12.20;99.90;;;;;;5049978;28;20421;-74
2022/09/25 09:02:54;;;;;;;6.38;1.45;;;12.40;99.90;;;;;;5031961;28;20041;-73
2022/09/25 09:05:28;;;;;;;8.98;1.27;;;12.60;99.90;;;;;;5034833;28;20041;-73
2022/09/25 09:08:02;;;;;;;6.10;1.20;;;12.70;99.90;;;;;;5014643;28;20057;-73
2022/09/25 09:10:28;;;;;;;5.32;1.02;;;12.90;99.90;;;;;;5030201;28;20038;-72
2022/09/25 09:13:08;;;;;;;5.97;1.50;;;13.00;99.90;;;;;;5012987;28;20049;-72
2022/09/25 09:15:48;;;;;;;9.27;1.40;;;13.10;99.90;;;;;;5044534;28;20268;-73
2022/09/25 09:18:22;;;;;;;6.38;0.98;;;13.20;99.90;;;;;;5027977;28;20052;-73
2022/09/25 09:20:52;;;;;;;5.35;1.02;;;13.30;99.90;;;;;;5039015;28;20053;-73
2022/09/25 09:23:23;;;;;;;8.68;1.55;;;13.40;99.90;;;;;;5028920;28;20439;-71
2022/09/25 09:25:58;;;;;;;;;;;13.50;99.90;;;;;;5031031;28;20056;-72
2022/09/25 09:28:51;;;;;;;7.72;0.90;;;13.60;99.90;;;;;;5011418;28;19925;-72
2022/09/25 09:31:30;;;;;;;7.93;1.65;;;13.70;99.90;;;;;;5060286;28;20045;-71
2022/09/25 09:34:07;;;;;;;10.73;1.27;;;13.80;99.90;;;;;;5026609;28;20573;-73
2022/09/25 09:36:42;;;;;;;4.72;0.98;;;13.90;99.90;;;;;;5033182;28;20053;-72
2022/09/25 09:39:23;;;;;;;6.03;1.10;;;13.90;99.90;;;;;;5041236;28;20091;-72
2022/09/25 09:42:00;;;;;;;6.47;1.08;;;13.90;99.90;;;;;;5029942;28;20041;-72
2022/09/25 09:44:48;;;;;;;4.90;1.02;;;13.90;99.90;;;;;;5038302;28;20045;-72
2022/09/25 09:47:41;;;;;;;9.13;1.02;;;13.90;99.90;;;;;;5029834;28;20517;-72
2022/09/25 09:50:22;;;;;;;4.88;0.82;;;13.90;99.90;;;;;;5033804;28;20030;-71
2022/09/25 09:52:54;;;;;;;3.88;0.80;;;13.90;99.90;;;;;;5033617;28;20431;-72
2022/09/25 09:55:25;;;;;;;7.25;1.08;;;13.90;99.90;;;;;;5035926;28;20053;-72
2022/09/25 09:58:07;;;;;;;5.63;0.73;;;13.80;99.90;;;;;;5027728;28;20050;-72
2022/09/25 10:00:34;;;;;;;3.78;0.80;;;13.80;99.90;;;;;;5022719;28;20075;-71
2022/09/25 10:03:11;;;;;;;5.55;1.00;;;13.80;99.90;;;;;;5036873;28;20047;-72
2022/09/25 10:05:52;;;;;;;7.47;1.20;;;13.80;99.90;;;;;;5028687;28;20166;-72
2022/09/25 10:08:18;;;;;;;4.53;0.50;;;13.80;99.90;;;;;;5027802;28;20394;-71
2022/09/25 10:10:47;;;;;;;6.50;0.85;;;13.80;99.90;;;;;;5034082;28;20037;-71
2022/09/25 10:13:31;;;;;;;4.43;0.68;;;13.80;99.90;;;;;;5016250;28;20050;-72
2022/09/25 10:16:14;;;;;;;6.53;0.90;;;13.80;99.90;;;;;;5034084;28;20120;-71
2022/09/25 10:18:51;;;;;;;4.28;0.70;;;13.80;99.90;;;;;;5031091;28;20045;-72
2022/09/25 10:21:20;;;;;;;3.20;0.55;;;13.80;99.90;;;;;;5058881;28;20049;-72
2022/09/25 10:23:45;;;;;;;6.15;0.90;;;13.80;99.90;;;;;;5026439;28;20041;-72
2022/09/25 10:26:30;;;;;;;4.40;0.95;;;13.90;99.90;;;;;;5035958;28;20056;-72
2022/09/25 10:29:02;;;;;;;2.38;0.40;;;13.90;99.90;;;;;;5058162;28;20044;-72
2022/09/25 10:31:32;;;;;;;4.63;0.52;;;14.00;99.90;;;;;;5033329;28;20045;-72
2022/09/25 10:34:05;;;;;;;6.63;0.65;;;14.00;99.90;;;;;;5033907;28;20037;-72
2022/09/25 10:36:41;;;;;;;5.95;0.65;;;14.00;99.90;;;;;;5043093;28;20045;-72
2022/09/25 10:39:25;;;;;;;1.15;0.35;;;14.10;99.90;;;;;;5041885;28;20052;-72
2022/09/25 10:41:51;;;;;;;1.10;0.30;;;14.10;99.90;;;;;;5028337;28;20040;-72
2022/09/25 10:44:37;;;;;;;2.30;0.55;;;14.20;99.90;;;;;;5014792;28;20103;-72
2022/09/25 10:50:25;;;;;;;3.00;0.57;;;14.20;99.90;;;;;;5028771;28;20262;-72
2022/09/25 10:52:58;;;;;;;1.35;0.40;;;14.30;99.90;;;;;;5022970;28;20049;-72
2022/09/25 10:55:42;;;;;;;0.88;0.45;;;14.30;99.90;;;;;;5033753;28;20064;-72
2022/09/25 10:58:21;;;;;;;2.10;0.40;;;14.30;99.90;;;;;;5022917;28;20037;-72
2022/09/25 11:00:53;;;;;;;3.22;0.68;;;14.30;99.90;;;;;;5032846;28;20064;-72
2022/09/25 11:03:34;;;;;;;1.75;0.32;;;14.30;99.90;;;;;;5016440;28;20056;-72
2022/09/25 11:06:21;;;;;;;3.00;0.55;;;14.30;99.90;;;;;;5054130;28;20054;-71
2022/09/25 11:09:08;;;;;;;2.08;0.52;;;14.30;99.90;;;;;;5030084;28;20123;-73
2022/09/25 11:11:45;;;;;;;5.03;0.60;;;14.40;99.90;;;;;;5093024;27;20705;-71
2022/09/25 11:14:35;;;;;;;3.38;0.60;;;14.40;99.90;;;;;;5089305;28;20055;-71
2022/09/25 11:17:07;;;;;;;2.78;0.60;;;14.40;99.90;;;;;;5092029;28;20047;-71
2022/09/25 11:19:37;;;;;;;4.38;0.68;;;14.40;99.90;;;;;;5097659;28;20166;-70
2022/09/25 11:22:12;;;;;;;2.65;0.50;;;14.50;99.90;;;;;;5093711;28;20096;-71
2022/09/25 11:24:49;;;;;;;3.33;0.70;;;14.50;99.90;;;;;;5090607;28;20086;-71
2022/09/25 11:27:35;;;;;;;4.07;0.68;;;14.50;99.90;;;;;;5089499;28;20412;-71
2022/09/25 11:30:04;;;;;;;3.03;0.68;;;14.50;99.90;;;;;;5085164;28;20470;-72
2022/09/25 11:33:04;;;;;;;4.97;0.75;;;14.60;99.90;;;;;;5095059;28;20058;-73
2022/09/25 11:35:48;;;;;;;7.47;0.85;;;14.60;99.90;;;;;;5093177;28;20043;-72
2022/09/25 11:41:10;;;;;;;6.03;0.88;;;14.70;99.90;;;;;;5095306;28;20036;-72
2022/09/25 11:41:15;;;;;;;4.57;0.60;;;14.70;99.90;;;;;;5092535;28;20041;-73
2022/09/25 11:44:14;;;;;;;2.35;0.47;;;14.80;99.90;;;;;;5079365;28;20043;-72
2022/09/25 11:47:10;;;;;;;5.38;0.60;;;14.90;99.90;;;;;;5082334;28;20117;-72
2022/09/25 11:49:39;;;;;;;4.22;0.47;;;15.00;99.90;;;;;;5104893;28;20040;-72
2022/09/25 11:52:28;;;;;;;3.53;0.65;;;15.00;99.90;;;;;;5081854;28;20462;-73
2022/09/25 11:55:09;;;;;;;2.03;0.50;;;15.00;99.90;;;;;;5066754;28;20134;-73
2022/09/25 11:57:54;;;;;;;2.47;0.73;;;15.00;99.90;;;;;;5085679;28;20048;-72
2022/09/25 12:00:35;;;;;;;5.78;0.60;;;15.10;99.90;;;;;;5082304;28;20059;-72
2022/09/25 12:03:12;;;;;;;6.53;0.90;;;15.10;99.90;;;;;;5082973;28;20055;-73
2022/09/25 12:06:06;;;;;;;4.90;0.90;;;15.20;99.90;;;;;;5064409;28;20040;-73
2022/09/25 12:09:03;;;;;;;4.75;0.95;;;15.20;99.90;;;;;;5097492;28;20769;-73
2022/09/25 12:12:03;;;;;;;3.90;0.40;;;15.20;99.90;;;;;;5086055;28;20047;-73
2022/09/25 12:14:47;;;;;;;4.00;0.60;;;15.30;99.90;;;;;;5080958;28;20070;-73
2022/09/25 12:17:26;;;;;;;4.40;0.63;;;15.30;99.90;;;;;;5076180;28;20048;-72
2022/09/25 12:20:28;;;;;;;3.50;0.60;;;15.30;99.90;;;;;;5087606;28;20075;-72
2022/09/25 12:23:26;;;;;;;3.80;0.68;;;15.10;99.90;;;;;;5065251;28;20573;-72
2022/09/25 12:26:07;;;;;;;2.90;0.47;;;15.00;99.90;;;;;;5056248;28;20076;-73
2022/09/25 12:28:51;;;;;;;5.78;0.60;;;14.90;99.90;;;;;;5062789;28;20067;-72
2022/09/25 12:31:53;;;;;;;9.65;0.70;;;14.80;99.90;;;;;;5069754;28;20059;-72
2022/09/25 12:34:39;;;;;;;3.05;0.60;;;14.70;99.90;;;;;;5069739;28;20041;-72
2022/09/25 12:37:26;;;;;;;4.57;0.73;;;14.70;99.90;;;;;;5068409;28;20066;-72
2022/09/25 12:39:57;;;;;;;3.53;0.68;;;14.70;99.90;;;;;;5084497;28;20533;-72
2022/09/25 12:42:38;;;;;;;5.13;0.80;;;14.70;99.90;;;;;;5050676;28;20048;-72
2022/09/25 12:45:16;;;;;;;3.60;0.98;;;14.70;99.90;;;;;;5064931;28;20483;-72
2022/09/25 12:47:53;;;;;;;3.22;0.52;;;14.70;99.90;;;;;;5064753;28;20059;-72
2022/09/25 12:50:27;;;;;;;4.68;0.88;;;14.70;99.90;;;;;;5062439;28;20052;-72
2022/09/25 12:53:09;;;;;;;4.50;0.60;;;14.70;99.90;;;;;;5059538;28;20052;-72
2022/09/25 12:55:41;;;;;;;7.10;0.80;;;14.80;99.90;;;;;;5071727;28;20178;-71
2022/09/25 12:58:27;;;;;;;4.68;0.80;;;14.90;99.90;;;;;;5047254;28;20102;-71
2022/09/25 13:01:13;;;;;;;3.50;0.60;;;15.00;99.90;;;;;;5075893;28;20044;-72
2022/09/25 13:03:50;;;;;;;4.22;0.70;;;15.00;99.90;;;;;;5089896;28;20068;-72
2022/09/25 13:06:42;;;;;;;7.00;0.73;;;15.10;99.90;;;;;;5056431;28;20040;-72
2022/09/25 13:09:13;;;;;;;4.72;0.80;;;15.10;99.90;;;;;;5046392;28;20052;-72
2022/09/25 13:11:52;;;;;;;6.38;0.80;;;15.20;99.90;;;;;;5054376;28;20051;-72
2022/09/25 13:14:45;;;;;;;6.05;0.80;;;15.20;99.90;;;;;;5059860;28;20047;-73
2022/09/25 13:17:12;;;;;;;5.28;0.80;;;15.00;99.90;;;;;;5065932;28;20345;-73
2022/09/25 13:19:38;;;;;;;4.20;0.75;;;15.00;99.90;;;;;;5078630;28;20442;-72
2022/09/25 13:22:18;;;;;;;7.60;0.70;;;14.90;99.90;;;;;;5077762;28;20051;-72
2022/09/25 13:25:04;;;;;;;3.30;0.57;;;14.90;99.90;;;;;;5074699;28;20048;-72
2022/09/25 13:27:41;;;;;;;6.18;1.08;;;14.90;99.90;;;;;;5070542;28;20052;-73
2022/09/25 13:30:24;;;;;;;6.50;0.60;;;15.00;99.90;;;;;;5054455;28;20547;-72
2022/09/25 13:32:56;;;;;;;4.32;0.57;;;15.00;99.90;;;;;;5078872;28;20289;-72
2022/09/25 13:35:23;;;;;;;4.30;1.00;;;15.00;99.90;;;;;;5077524;28;20121;-72
2022/09/25 13:37:51;;;;;;;5.53;1.10;;;15.00;99.90;;;;;;5068167;28;20033;-72
2022/09/25 13:43:24;;;;;;;1.98;0.30;;;15.00;99.90;;;;;;5075203;28;20646;-73